Time;durP1;ratioP1;P1;durP2;ratioP2;P2;SDS_P1;SDS_P2;PMS_P1;PMS_P2;Temp;Humidity;BMP_temperature;BMP_pressure;BME280_temperature;BME280_humidity;BME280_pressure;Samples;Min_cycle;Max_cycle;Signal;HPM_P1;HPM_P2
2023/01/28 00:01:48;;;;;;;7.03;5.28;;;;;;;4.16;70.53;101471.25;4187814;28;20036;-62
2023/01/28 00:03:52;;;;;;;7.60;5.65;;;;;;;3.98;70.44;101468.50;4194970;28;20044;-61
2023/01/28 00:06:02;;;;;;;6.82;5.07;;;;;;;3.99;70.56;101472.88;4188172;28;20033;-61
2023/01/28 00:08:05;;;;;;;7.05;4.50;;;;;;;3.99;71.48;101478.03;4188185;28;20148;-62
2023/01/28 00:10:09;;;;;;;8.63;5.43;;;;;;;4.00;71.30;101475.53;4191952;28;20037;-62
2023/01/28 00:12:12;;;;;;;7.50;4.90;;;;;;;4.03;71.11;101464.53;4194354;28;20037;-62
2023/01/28 00:14:15;;;;;;;6.75;4.88;;;;;;;4.04;70.80;101471.44;4184160;28;20044;-62
2023/01/28 00:16:17;;;;;;;7.03;4.78;;;;;;;3.95;71.09;101466.66;4183881;28;20033;-62
2023/01/28 00:18:20;;;;;;;6.28;3.95;;;;;;;3.98;70.95;101461.66;4188976;28;20044;-63
2023/01/28 00:20:24;;;;;;;6.72;4.97;;;;;;;4.02;70.72;101457.59;4193708;28;20036;-63
2023/01/28 00:22:27;;;;;;;6.32;4.55;;;;;;;3.95;70.53;101464.06;4193401;28;20501;-62
2023/01/28 00:24:32;;;;;;;9.05;4.57;;;;;;;3.95;71.05;101456.34;4194000;28;20044;-63
2023/01/28 00:26:36;;;;;;;7.10;4.72;;;;;;;4.06;70.41;101459.56;4190130;28;20045;-62
2023/01/28 00:28:39;;;;;;;9.40;4.45;;;;;;;4.08;70.07;101446.78;4186155;28;20125;-62
2023/01/28 00:30:42;;;;;;;6.53;4.35;;;;;;;3.99;70.61;101452.28;4188051;28;20041;-62
2023/01/28 00:32:45;;;;;;;6.38;4.53;;;;;;;4.08;70.20;101452.81;4195828;28;20172;-62
2023/01/28 00:34:48;;;;;;;5.45;3.67;;;;;;;4.01;70.39;101454.13;4195595;28;20040;-63
2023/01/28 00:36:56;;;;;;;6.35;4.22;;;;;;;4.08;70.30;101452.81;4181503;28;20132;-62
2023/01/28 00:39:00;;;;;;;8.10;4.25;;;;;;;3.94;70.75;101456.28;4190322;28;20407;-62
2023/01/28 00:41:09;;;;;;;6.30;4.50;;;;;;;3.97;70.42;101448.72;4187413;28;20068;-62
2023/01/28 00:43:12;;;;;;;5.93;4.05;;;;;;;3.95;70.53;101455.47;4191085;28;20413;-62
2023/01/28 00:45:15;;;;;;;6.10;4.35;;;;;;;3.91;70.93;101456.97;4205499;28;20036;-62
2023/01/28 00:47:20;;;;;;;6.13;4.38;;;;;;;4.08;70.12;101449.34;4192362;28;20421;-62
2023/01/28 00:49:23;;;;;;;5.90;4.10;;;;;;;4.01;70.03;101448.09;4192362;28;20450;-62
2023/01/28 00:51:26;;;;;;;6.60;4.55;;;;;;;3.89;70.73;101439.69;4173622;28;20033;-63
2023/01/28 00:53:30;;;;;;;6.18;4.20;;;;;;;3.95;70.65;101447.75;4188121;28;20040;-63
2023/01/28 00:55:33;;;;;;;6.90;4.65;;;;;;;3.95;70.50;101445.19;4195758;28;20520;-63
2023/01/28 00:57:36;;;;;;;6.97;4.90;;;;;;;3.96;70.48;101449.53;4197867;28;20036;-63
2023/01/28 00:59:39;;;;;;;9.00;4.90;;;;;;;3.91;70.40;101458.66;4181817;28;20067;-62
2023/01/28 01:01:42;;;;;;;6.70;4.68;;;;;;;3.90;70.70;101465.50;4181571;28;20045;-62
2023/01/28 01:03:45;;;;;;;5.80;4.32;;;;;;;3.98;70.22;101450.50;4181213;28;20044;-63
2023/01/28 01:05:48;;;;;;;6.35;3.85;;;;;;;3.94;70.13;101454.59;4181552;28;20051;-63
2023/01/28 01:07:51;;;;;;;5.68;4.07;;;;;;;3.81;71.23;101447.88;4181412;28;20043;-62
2023/01/28 01:09:56;;;;;;;5.80;3.83;;;;;;;3.95;70.49;101448.63;4181471;28;20129;-62
2023/01/28 01:11:59;;;;;;;6.32;3.47;;;;;;;4.00;69.97;101452.38;4184659;28;20601;-62
2023/01/28 01:14:04;;;;;;;6.18;3.97;;;;;;;3.93;69.76;101451.91;4180957;28;20510;-62
2023/01/28 01:16:08;;;;;;;;;;;;;;;3.79;70.17;101457.16;4165264;28;20049;-62
2023/01/28 01:18:11;;;;;;;5.30;3.78;;;;;;;3.82;69.90;101465.06;4182523;28;19928;-63
2023/01/28 01:20:17;;;;;;;5.78;3.80;;;;;;;3.79;70.39;101462.31;4181254;28;20056;-62
2023/01/28 01:22:20;;;;;;;5.88;3.63;;;;;;;3.90;70.11;101457.78;4182583;28;20037;-62
2023/01/28 01:24:22;;;;;;;5.32;3.88;;;;;;;3.90;70.17;101460.38;4182059;28;20429;-62
2023/01/28 01:26:27;;;;;;;6.18;4.32;;;;;;;3.89;69.88;101465.44;4181150;28;20040;-63
2023/01/28 01:28:32;;;;;;;5.45;3.80;;;;;;;3.71;70.34;101466.13;4189760;28;20064;-62
2023/01/28 01:30:35;;;;;;;5.03;3.42;;;;;;;3.82;70.60;101465.06;4195434;28;20060;-62
2023/01/28 01:32:38;;;;;;;5.30;3.63;;;;;;;3.83;70.65;101471.09;4195076;28;20105;-63
2023/01/28 01:34:41;;;;;;;5.13;3.60;;;;;;;3.84;69.96;101468.63;4194787;28;20052;-62
2023/01/28 01:36:45;;;;;;;6.63;3.30;;;;;;;3.80;70.21;101466.66;4196137;28;20035;-62
2023/01/28 01:38:48;;;;;;;5.72;3.28;;;;;;;3.96;69.73;101470.13;4188398;28;20406;-62
2023/01/28 01:40:51;;;;;;;4.85;3.13;;;;;;;3.88;69.64;101468.78;4187641;28;20489;-63
2023/01/28 01:42:55;;;;;;;5.03;3.63;;;;;;;3.86;69.60;101463.56;4187663;28;20040;-62
2023/01/28 01:45:01;;;;;;;4.63;3.50;;;;;;;3.83;69.59;101461.69;4194908;28;20067;-62
2023/01/28 01:47:04;;;;;;;5.65;3.35;;;;;;;3.83;69.61;101468.53;4195222;28;20482;-63
2023/01/28 01:49:15;;;;;;;6.90;3.50;;;;;;;3.79;70.04;101469.16;4178645;28;20127;-62
2023/01/28 01:51:22;;;;;;;4.05;2.90;;;;;;;3.95;69.62;101465.78;4185806;28;20526;-62
2023/01/28 01:53:28;;;;;;;5.30;3.20;;;;;;;3.94;69.18;101461.41;4189203;28;20189;-62
2023/01/28 01:55:35;;;;;;;5.53;3.28;;;;;;;3.87;69.37;101473.06;4185706;28;20041;-63
2023/01/28 01:57:40;;;;;;;5.32;2.90;;;;;;;3.98;69.03;101466.81;4194718;28;20047;-62
2023/01/28 01:59:46;;;;;;;6.22;3.35;;;;;;;3.93;69.33;101467.34;4194404;28;20101;-62
2023/01/28 02:01:49;;;;;;;4.30;3.17;;;;;;;3.88;69.34;101476.50;4193361;28;20040;-62
2023/01/28 02:04:00;;;;;;;5.07;3.20;;;;;;;3.86;69.25;101470.41;4179261;28;20045;-62
2023/01/28 02:06:04;;;;;;;4.15;3.00;;;;;;;3.89;69.10;101481.72;4188480;28;21567;-62
2023/01/28 02:08:20;;;;;;;4.32;3.22;;;;;;;3.79;69.38;101480.31;4192972;28;20502;-63
2023/01/28 02:10:24;;;;;;;4.68;3.17;;;;;;;3.84;69.31;101475.41;4190970;28;20078;-63
2023/01/28 02:12:34;;;;;;;5.53;3.67;;;;;;;3.75;69.33;101473.25;4192426;28;20045;-62
2023/01/28 02:14:42;;;;;;;4.88;3.38;;;;;;;3.82;69.09;101471.88;4193944;28;20070;-62
2023/01/28 02:16:46;;;;;;;5.43;3.47;;;;;;;3.88;69.16;101468.78;4187427;28;20465;-63
2023/01/28 02:18:49;;;;;;;4.93;3.10;;;;;;;3.87;69.45;101469.56;4194415;28;20055;-62
2023/01/28 02:21:34;;;;;;;5.03;3.30;;;;;;;3.89;68.69;101473.16;4189327;28;20410;-62
2023/01/28 02:23:54;;;;;;;4.93;3.15;;;;;;;3.88;69.21;101472.25;4138461;28;20053;-62
2023/01/28 02:26:26;;;;;;;4.65;3.17;;;;;;;3.84;68.68;101473.75;4185988;28;20051;-62
2023/01/28 02:28:35;;;;;;;5.05;3.15;;;;;;;3.77;69.19;101479.34;4194689;28;20040;-62
2023/01/28 02:30:41;;;;;;;6.93;3.45;;;;;;;3.87;69.11;101480.78;4194670;28;20643;-62
2023/01/28 02:32:53;;;;;;;5.38;3.30;;;;;;;3.90;68.36;101477.47;4193948;28;20048;-63
2023/01/28 02:35:02;;;;;;;5.60;3.30;;;;;;;3.83;68.78;101481.38;4171165;28;20525;-62
2023/01/28 02:37:13;;;;;;;5.65;3.42;;;;;;;3.75;69.28;101491.25;4189127;28;20127;-63
2023/01/28 02:39:22;;;;;;;5.55;3.08;;;;;;;3.74;69.28;101480.84;4190784;28;20041;-63
2023/01/28 02:41:31;;;;;;;9.13;3.92;;;;;;;3.83;68.84;101482.25;4176230;28;20124;-62
2023/01/28 02:43:38;;;;;;;5.15;3.35;;;;;;;3.80;69.40;101481.22;4191924;28;20068;-62
2023/01/28 02:48:01;;;;;;;5.20;3.08;;;;;;;3.74;68.70;101471.47;4188357;28;20119;-62
2023/01/28 02:50:08;;;;;;;5.63;3.53;;;;;;;3.68;68.81;101468.53;4193347;28;20041;-62
2023/01/28 02:55:01;;;;;;;4.55;3.40;;;;;;;3.67;68.99;101466.75;4187825;28;20032;-63
2023/01/28 02:57:16;;;;;;;5.72;3.28;;;;;;;3.63;68.40;101467.38;4195390;28;20044;-62
2023/01/28 02:59:30;;;;;;;5.03;3.28;;;;;;;3.73;68.36;101472.25;4196394;28;20115;-63
2023/01/28 03:01:43;;;;;;;6.97;3.75;;;;;;;3.73;68.12;101468.78;4196226;28;20036;-62
2023/01/28 03:03:57;;;;;;;4.40;3.20;;;;;;;3.57;69.08;101467.88;4196962;28;20052;-62
2023/01/28 03:06:06;;;;;;;7.88;3.40;;;;;;;3.68;68.22;101473.69;4196385;28;20044;-63
2023/01/28 03:10:29;;;;;;;6.03;3.70;;;;;;;3.52;69.25;101482.16;4195250;28;20425;-63
2023/01/28 03:36:49;;;;;;;4.40;3.28;;;;;;;3.45;69.40;101487.75;4181889;28;20051;-62
2023/01/28 03:39:16;;;;;;;4.15;3.17;;;;;;;3.44;69.49;101498.81;4186394;28;20043;-61
2023/01/28 03:41:21;;;;;;;4.78;3.00;;;;;;;3.55;69.08;101491.72;4188358;28;20124;-61
2023/01/28 03:43:24;;;;;;;5.38;3.15;;;;;;;3.36;69.76;101506.06;4191967;28;20502;-62
2023/01/28 03:45:27;;;;;;;4.82;3.10;;;;;;;3.51;69.11;101507.78;4193652;28;20064;-61
2023/01/28 03:47:33;;;;;;;4.60;3.20;;;;;;;3.57;69.44;101508.16;4187856;28;20045;-61
2023/01/28 03:49:40;;;;;;;4.10;2.67;;;;;;;3.44;69.51;101519.38;4185283;28;20044;-61
2023/01/28 03:51:43;;;;;;;;;;;;;;;3.40;69.90;101525.13;4190023;28;20033;-62
2023/01/28 03:53:46;;;;;;;5.22;3.20;;;;;;;3.43;69.37;101525.31;4185206;28;20398;-61
2023/01/28 03:55:52;;;;;;;5.50;3.25;;;;;;;3.49;69.16;101523.13;4186848;28;20101;-61
2023/01/28 03:57:54;;;;;;;5.55;3.42;;;;;;;3.28;69.79;101527.84;4192646;28;20039;-61
2023/01/28 03:59:58;;;;;;;5.55;3.38;;;;;;;3.32;69.55;101532.38;4190993;28;20043;-62
2023/01/28 04:02:02;;;;;;;6.65;3.72;;;;;;;3.41;69.53;101540.63;4171529;28;20045;-61
2023/01/28 04:04:07;;;;;;;5.65;3.40;;;;;;;3.46;69.06;101534.09;4197452;28;20032;-61
2023/01/28 04:06:10;;;;;;;5.40;3.25;;;;;;;3.52;69.16;101527.53;4195662;28;20044;-61
2023/01/28 04:08:51;;;;;;;5.78;3.50;;;;;;;3.52;68.73;101532.69;4188305;28;20545;-61
2023/01/28 04:11:18;;;;;;;6.65;3.92;;;;;;;3.34;69.14;101535.91;4187528;28;20053;-61
2023/01/28 04:13:23;;;;;;;5.10;3.35;;;;;;;3.29;69.09;101537.34;4176315;28;20535;-61
2023/01/28 04:15:27;;;;;;;7.18;3.55;;;;;;;3.43;68.97;101533.91;4186790;28;20102;-62
2023/01/28 04:17:29;;;;;;;7.40;3.75;;;;;;;3.37;69.12;101538.66;4174756;28;20053;-62
2023/01/28 04:19:36;;;;;;;4.80;2.92;;;;;;;3.37;68.93;101528.38;4194999;28;20033;-61
2023/01/28 04:21:40;;;;;;;4.82;3.65;;;;;;;3.31;69.61;101528.94;4196386;28;20079;-62
2023/01/28 04:23:43;;;;;;;6.97;3.45;;;;;;;3.33;69.58;101523.88;4188982;28;20040;-62
2023/01/28 04:25:50;;;;;;;5.88;3.25;;;;;;;3.33;69.26;101526.44;4189336;28;20471;-61
2023/01/28 04:27:54;;;;;;;5.85;3.80;;;;;;;3.36;69.68;101526.63;4184989;28;20061;-62
2023/01/28 04:30:00;;;;;;;4.82;3.20;;;;;;;3.44;69.36;101527.97;4192673;28;20047;-61
2023/01/28 04:32:15;;;;;;;5.72;3.42;;;;;;;3.40;68.95;101533.75;4196216;28;20048;-62
2023/01/28 04:34:39;;;;;;;5.57;3.38;;;;;;;3.43;68.68;101528.78;4196119;28;20033;-61
2023/01/28 04:37:04;;;;;;;6.95;3.30;;;;;;;3.43;68.88;101531.34;4190565;28;20103;-61
2023/01/28 04:39:27;;;;;;;5.32;3.05;;;;;;;3.37;68.84;101528.38;4176878;28;20048;-62
2023/01/28 04:41:48;;;;;;;6.75;3.35;;;;;;;3.45;68.45;101529.75;4194075;28;20051;-62
2023/01/28 04:43:58;;;;;;;6.05;3.25;;;;;;;3.39;68.77;101529.38;4204977;28;20052;-62
2023/01/28 04:46:19;;;;;;;5.35;3.35;;;;;;;3.52;68.49;101530.09;4194046;28;20457;-62
2023/01/28 04:48:48;;;;;;;6.50;3.70;;;;;;;3.40;68.55;101530.25;4181931;28;20503;-62
2023/01/28 04:51:11;;;;;;;5.32;3.08;;;;;;;3.38;68.80;101539.56;4188365;28;20036;-62
2023/01/28 04:53:30;;;;;;;5.88;3.08;;;;;;;3.39;68.71;101534.53;4194364;28;20127;-62
2023/01/28 04:55:34;;;;;;;4.10;2.80;;;;;;;3.38;68.24;101531.88;4196496;28;20437;-62
2023/01/28 04:57:37;;;;;;;6.38;3.15;;;;;;;3.45;68.29;101534.88;4198136;28;20040;-62
2023/01/28 04:59:42;;;;;;;6.00;3.42;;;;;;;3.45;68.44;101542.59;4198054;28;20132;-62
2023/01/28 05:01:45;;;;;;;5.13;3.17;;;;;;;3.38;68.48;101547.28;4199342;28;20036;-62
2023/01/28 05:03:49;;;;;;;12.35;3.40;;;;;;;3.34;68.68;101543.63;4197743;28;20494;-62
2023/01/28 05:06:03;;;;;;;5.65;2.85;;;;;;;3.37;68.93;101548.94;4181528;28;20045;-62
2023/01/28 05:08:19;;;;;;;;;;;;;;;3.26;68.44;101542.28;4198665;28;20049;-62
2023/01/28 05:10:22;;;;;;;5.60;3.17;;;;;;;3.23;69.04;101549.81;4197965;28;19974;-62
2023/01/28 05:12:26;;;;;;;4.15;3.15;;;;;;;3.29;68.45;101543.34;4195598;28;20048;-62
2023/01/28 05:14:31;;;;;;;5.30;2.88;;;;;;;3.30;68.98;101542.56;4196705;28;20080;-62
2023/01/28 05:16:41;;;;;;;6.00;2.80;;;;;;;3.33;68.92;101544.44;4197887;28;20044;-62
2023/01/28 05:18:46;;;;;;;4.82;2.70;;;;;;;3.32;68.59;101547.78;4199063;28;20036;-62
2023/01/28 05:20:51;;;;;;;5.88;2.70;;;;;;;3.34;68.60;101551.34;4197950;28;20087;-62
2023/01/28 05:22:54;;;;;;;7.30;3.53;;;;;;;3.37;68.66;101550.63;4197785;28;20036;-62
2023/01/28 05:25:02;;;;;;;6.22;2.83;;;;;;;3.41;67.85;101553.47;4197481;28;20041;-62
2023/01/28 05:27:06;;;;;;;;;;;;;;;3.42;67.82;101554.41;4198161;28;20111;-61
2023/01/28 05:29:09;;;;;;;5.53;3.88;;;;;;;3.46;67.25;101556.31;4194707;28;19924;-62
2023/01/28 05:31:13;;;;;;;5.03;3.47;;;;;;;3.51;67.60;101560.09;4194595;28;20032;-61
2023/01/28 05:33:16;;;;;;;5.72;3.30;;;;;;;3.49;66.94;101561.69;4195603;28;20120;-62
2023/01/28 05:35:19;;;;;;;3.47;2.63;;;;;;;3.47;67.12;101563.25;4196815;28;20036;-61
2023/01/28 05:37:22;;;;;;;4.65;2.80;;;;;;;3.48;66.92;101565.03;4192143;28;20033;-61
2023/01/28 05:39:28;;;;;;;6.57;3.00;;;;;;;3.44;66.92;101571.66;4190213;28;20041;-61
2023/01/28 05:41:33;;;;;;;4.45;3.03;;;;;;;3.37;66.99;101569.50;4189420;28;20040;-61
2023/01/28 05:43:38;;;;;;;3.83;2.40;;;;;;;3.52;66.45;101571.25;4190668;28;20086;-61
2023/01/28 05:46:01;;;;;;;4.35;2.72;;;;;;;3.41;67.36;101574.06;4195274;28;20053;-61
2023/01/28 05:48:10;;;;;;;5.40;2.97;;;;;;;3.32;67.19;101569.22;4186961;28;20045;-61
2023/01/28 05:50:36;;;;;;;3.35;2.70;;;;;;;3.50;66.52;101576.28;4190895;28;20055;-61
2023/01/28 05:52:46;;;;;;;3.90;2.30;;;;;;;3.38;67.15;101581.56;4191978;28;20041;-61
2023/01/28 05:54:58;;;;;;;4.25;2.47;;;;;;;3.36;67.29;101585.75;4174109;28;20132;-61
2023/01/28 05:57:02;;;;;;;4.15;2.60;;;;;;;3.44;67.25;101588.78;4191927;28;20037;-62
2023/01/28 05:59:06;;;;;;;4.95;2.92;;;;;;;3.44;66.37;101589.66;4194984;28;20040;-61
2023/01/28 06:01:10;;;;;;;4.72;2.42;;;;;;;3.39;66.88;101587.59;4172506;28;20132;-61
2023/01/28 06:03:18;;;;;;;4.53;2.50;;;;;;;3.31;67.42;101592.28;4188110;28;20036;-61
2023/01/28 06:05:20;;;;;;;4.90;3.00;;;;;;;3.32;67.61;101584.66;4192538;28;20043;-61
2023/01/28 06:07:23;;;;;;;5.57;2.90;;;;;;;3.38;67.81;101593.56;4195142;28;20454;-61
2023/01/28 06:09:26;;;;;;;5.35;3.80;;;;;;;3.39;67.15;101600.44;4192965;28;20522;-61
2023/01/28 06:11:29;;;;;;;5.10;2.78;;;;;;;3.34;67.45;101595.03;4193718;28;20040;-61
2023/01/28 06:13:40;;;;;;;4.68;2.90;;;;;;;3.30;68.15;101600.75;4195166;28;20098;-61
2023/01/28 06:16:07;;;;;;;5.13;2.97;;;;;;;3.45;67.50;101596.59;4196997;28;20064;-61
2023/01/28 06:18:34;;;;;;;5.10;2.78;;;;;;;3.50;66.64;101604.56;4193454;28;20044;-61
2023/01/28 06:20:37;;;;;;;6.53;3.65;;;;;;;3.46;67.30;101607.75;4193200;28;20032;-61
2023/01/28 06:22:41;;;;;;;4.68;3.00;;;;;;;3.47;67.25;101620.69;4194315;28;20490;-61
2023/01/28 06:24:43;;;;;;;4.25;3.30;;;;;;;3.46;66.87;101620.59;4192541;28;20044;-61
2023/01/28 06:26:46;;;;;;;4.82;3.53;;;;;;;3.39;67.80;101621.00;4195127;28;20060;-61
2023/01/28 06:28:51;;;;;;;6.15;3.83;;;;;;;3.45;67.39;101622.28;4192764;28;20036;-61
2023/01/28 06:30:54;;;;;;;4.93;3.78;;;;;;;3.37;68.12;101622.59;4173254;28;20061;-61
2023/01/28 06:32:57;;;;;;;5.90;4.03;;;;;;;3.40;67.68;101620.22;4193498;28;20115;-62
2023/01/28 06:35:00;;;;;;;5.28;4.05;;;;;;;3.26;68.66;101624.53;4174854;28;20048;-61
2023/01/28 06:37:03;;;;;;;5.65;3.47;;;;;;;3.21;68.12;101631.91;4191080;28;20040;-62
2023/01/28 06:39:06;;;;;;;9.70;5.00;;;;;;;3.32;68.37;101637.75;4193391;28;20478;-63
2023/01/28 06:41:09;;;;;;;8.20;4.63;;;;;;;3.28;68.20;101635.78;4183639;28;20490;-62
2023/01/28 06:43:12;;;;;;;5.65;4.32;;;;;;;3.23;68.50;101637.19;4181393;28;20028;-64
2023/01/28 06:45:16;;;;;;;7.68;4.32;;;;;;;3.16;69.46;101642.72;4193837;28;20509;-68
2023/01/28 06:47:19;;;;;;;6.93;4.47;;;;;;;3.18;69.02;101646.25;4190249;28;20037;-69
2023/01/28 06:49:22;;;;;;;7.47;4.95;;;;;;;3.21;69.34;101646.47;4194515;28;20048;-66
2023/01/28 06:51:25;;;;;;;8.07;4.22;;;;;;;3.13;69.04;101654.56;4196177;28;20040;-63
2023/01/28 06:53:27;;;;;;;6.70;4.82;;;;;;;3.19;68.99;101658.34;4190420;28;20048;-64
2023/01/28 06:55:31;;;;;;;7.70;4.65;;;;;;;3.29;68.56;101655.56;4187992;28;20127;-63
2023/01/28 06:57:38;;;;;;;7.85;4.32;;;;;;;3.21;69.03;101667.88;4177196;28;20059;-63
2023/01/28 06:59:40;;;;;;;7.10;4.00;;;;;;;3.25;68.64;101671.56;4194808;28;20040;-64
2023/01/28 07:01:45;;;;;;;6.93;4.50;;;;;;;3.19;68.86;101663.47;4180599;28;20136;-63
2023/01/28 07:03:48;;;;;;;8.70;4.20;;;;;;;3.21;68.92;101667.88;4195403;28;20053;-63
2023/01/28 07:05:51;;;;;;;14.02;4.57;;;;;;;3.18;68.93;101666.81;4191680;28;20079;-63
2023/01/28 07:07:54;;;;;;;7.80;4.85;;;;;;;3.24;68.31;101665.53;4190597;28;20131;-63
2023/01/28 07:09:58;;;;;;;9.13;4.30;;;;;;;3.18;68.72;101666.81;4196936;28;20555;-64
2023/01/28 07:12:04;;;;;;;6.88;4.25;;;;;;;3.16;69.42;101666.72;4188625;28;20053;-63
2023/01/28 07:14:06;;;;;;;11.60;4.63;;;;;;;3.13;68.88;101669.09;4183225;28;20036;-63
2023/01/28 07:16:09;;;;;;;7.53;4.65;;;;;;;3.14;69.44;101666.63;4185365;28;20040;-63
2023/01/28 07:18:13;;;;;;;7.07;5.10;;;;;;;3.23;68.31;101668.03;4192459;28;20044;-64
2023/01/28 07:20:18;;;;;;;7.85;5.15;;;;;;;3.13;68.85;101672.56;4185704;28;20035;-64
2023/01/28 07:22:20;;;;;;;8.95;4.97;;;;;;;3.22;68.66;101673.94;4191109;28;20047;-63
2023/01/28 07:24:23;;;;;;;9.80;4.68;;;;;;;3.08;69.20;101673.97;4192836;28;20048;-63
2023/01/28 07:26:26;;;;;;;6.47;4.35;;;;;;;3.12;68.79;101677.59;4186499;28;20506;-63
2023/01/28 07:28:29;;;;;;;6.55;4.32;;;;;;;3.15;68.94;101672.66;4195321;28;20059;-63
2023/01/28 07:30:32;;;;;;;6.68;4.28;;;;;;;3.13;69.11;101669.97;4183153;28;20033;-63
2023/01/28 07:32:35;;;;;;;10.90;6.18;;;;;;;3.18;69.18;101666.81;4187713;28;20040;-64
2023/01/28 07:34:41;;;;;;;7.50;4.72;;;;;;;3.22;67.97;101673.94;4194053;28;20128;-63
2023/01/28 07:36:44;;;;;;;7.05;4.68;;;;;;;3.17;68.25;101670.19;4195178;28;20055;-63
2023/01/28 07:38:47;;;;;;;8.45;4.47;;;;;;;3.07;69.28;101677.31;4192520;28;20091;-63
2023/01/28 07:40:50;;;;;;;6.32;4.15;;;;;;;3.26;68.48;101675.91;4184391;28;20402;-63
2023/01/28 07:42:54;;;;;;;7.93;4.93;;;;;;;3.29;67.76;101676.09;4185602;28;20040;-63
2023/01/28 07:44:57;;;;;;;9.88;4.18;;;;;;;3.28;68.01;101674.31;4186803;28;20037;-63
2023/01/28 07:47:00;;;;;;;6.47;4.47;;;;;;;3.20;68.32;101666.13;4186613;28;20107;-64
2023/01/28 07:49:03;;;;;;;7.82;4.55;;;;;;;3.22;68.29;101677.38;4195266;28;20072;-63
2023/01/28 07:51:07;;;;;;;8.93;4.55;;;;;;;3.20;68.06;101671.28;4195668;28;20398;-63
2023/01/28 07:53:11;;;;;;;8.32;4.57;;;;;;;3.17;68.26;101675.31;4194679;28;20437;-63
2023/01/28 07:55:14;;;;;;;8.13;4.55;;;;;;;3.14;68.51;101673.47;4196263;28;20066;-63
2023/01/28 07:57:22;;;;;;;10.40;4.60;;;;;;;3.18;68.36;101683.13;4183988;28;20041;-63
2023/01/28 07:59:24;;;;;;;9.23;4.72;;;;;;;3.21;68.43;101683.31;4184763;28;20037;-63
2023/01/28 08:01:27;;;;;;;6.40;4.20;;;;;;;3.30;67.21;101683.91;4193384;28;20032;-63
2023/01/28 08:03:30;;;;;;;8.32;4.10;;;;;;;3.32;66.97;101687.47;4193017;28;20033;-63
2023/01/28 08:05:44;;;;;;;8.70;3.90;;;;;;;3.33;66.69;101688.38;4188175;28;20044;-63
2023/01/28 08:07:49;;;;;;;5.82;3.58;;;;;;;3.41;66.19;101674.28;4164209;28;20047;-64
2023/01/28 08:09:52;;;;;;;9.30;4.13;;;;;;;3.30;66.81;101689.06;4194242;28;20044;-63
2023/01/28 08:11:55;;;;;;;6.60;4.25;;;;;;;3.29;66.97;101694.09;4174803;28;20037;-63
2023/01/28 08:13:58;;;;;;;9.43;3.97;;;;;;;3.28;66.28;101690.63;4193515;28;20568;-63
2023/01/28 08:16:01;;;;;;;6.50;3.90;;;;;;;3.19;67.39;101691.75;4196362;28;20039;-63
2023/01/28 08:18:05;;;;;;;7.03;4.38;;;;;;;3.14;67.67;101694.91;4195084;28;20041;-63
2023/01/28 08:20:09;;;;;;;8.10;5.07;;;;;;;3.11;68.25;101692.13;4187104;28;20082;-63
2023/01/28 08:22:12;;;;;;;5.88;4.07;;;;;;;3.13;68.63;101695.69;4185421;28;20120;-63
2023/01/28 08:24:17;;;;;;;9.60;4.72;;;;;;;3.33;67.23;101698.66;4195899;28;20074;-63
2023/01/28 08:26:20;;;;;;;7.38;4.60;;;;;;;3.44;66.72;101702.75;4195488;28;20039;-63
2023/01/28 08:28:22;;;;;;;7.53;4.43;;;;;;;3.46;66.31;101703.78;4195154;28;20123;-63
2023/01/28 08:30:25;;;;;;;10.50;4.72;;;;;;;3.43;66.75;101711.28;4185730;28;20490;-64
2023/01/28 08:32:29;;;;;;;6.72;4.30;;;;;;;3.38;67.11;101710.09;4193907;28;20040;-63
2023/01/28 08:34:32;;;;;;;10.38;4.95;;;;;;;3.40;67.23;101711.09;4194482;28;20040;-63
2023/01/28 08:36:34;;;;;;;6.93;4.38;;;;;;;3.36;66.53;101708.22;4187142;28;20045;-63
2023/01/28 08:38:37;;;;;;;7.65;4.72;;;;;;;3.38;66.39;101706.66;4195645;28;20379;-64
2023/01/28 08:40:41;;;;;;;9.68;3.83;;;;;;;3.41;66.20;101709.41;4185570;28;20041;-63
2023/01/28 08:42:47;;;;;;;7.88;4.45;;;;;;;3.30;66.85;101713.84;4190334;28;20078;-63
2023/01/28 08:44:49;;;;;;;6.97;4.50;;;;;;;3.33;66.60;101714.06;4194223;28;20047;-63
2023/01/28 08:46:52;;;;;;;9.68;4.55;;;;;;;3.43;66.45;101716.44;4189443;28;20047;-64
2023/01/28 08:48:55;;;;;;;8.75;4.38;;;;;;;3.32;67.04;101713.16;4197436;28;20047;-64
2023/01/28 08:50:59;;;;;;;7.85;4.53;;;;;;;3.40;66.42;101716.25;4186813;28;20041;-64
2023/01/28 08:53:04;;;;;;;7.85;4.53;;;;;;;3.34;66.31;101720.97;4190545;28;20563;-64
2023/01/28 08:55:08;;;;;;;7.50;4.40;;;;;;;3.43;66.78;101715.53;4193064;28;20103;-64
2023/01/28 08:57:12;;;;;;;8.65;4.60;;;;;;;3.35;66.84;101706.47;4193438;28;20036;-64
2023/01/28 08:59:14;;;;;;;6.85;4.47;;;;;;;3.32;66.97;101707.16;4189513;28;20036;-64
2023/01/28 09:01:17;;;;;;;10.57;5.32;;;;;;;3.46;66.32;101716.63;4191982;28;20475;-64
2023/01/28 09:03:20;;;;;;;11.90;6.18;;;;;;;3.45;66.55;101717.41;4190985;28;20399;-64
2023/01/28 09:05:23;;;;;;;7.38;4.43;;;;;;;3.54;66.45;101718.78;4197164;28;20042;-64
2023/01/28 09:07:26;;;;;;;11.40;4.90;;;;;;;3.62;65.71;101712.44;4198713;28;20114;-63
2023/01/28 09:09:30;;;;;;;8.18;4.70;;;;;;;3.50;66.39;101717.69;4188728;28;20048;-62
2023/01/28 09:11:33;;;;;;;7.50;4.28;;;;;;;3.55;66.22;101716.31;4180893;28;20033;-62
2023/01/28 09:13:37;;;;;;;7.57;4.18;;;;;;;3.60;66.06;101714.03;4196411;28;20066;-62
2023/01/28 09:15:41;;;;;;;9.20;5.35;;;;;;;3.65;65.51;101718.66;4197027;28;20051;-63
2023/01/28 09:17:44;;;;;;;7.57;4.10;;;;;;;3.61;65.90;101720.97;4198628;28;20044;-63
2023/01/28 09:19:47;;;;;;;7.72;4.43;;;;;;;3.63;64.84;101720.22;4184971;28;20045;-63
2023/01/28 09:21:50;;;;;;;6.88;4.07;;;;;;;3.64;65.23;101726.28;4198618;28;20051;-64
2023/01/28 09:23:54;;;;;;;8.20;3.92;;;;;;;3.64;65.24;101722.03;4186678;28;20037;-62
2023/01/28 09:26:00;;;;;;;7.22;4.95;;;;;;;3.57;65.88;101724.13;4198590;28;20478;-62
2023/01/28 09:28:04;;;;;;;6.65;4.55;;;;;;;3.65;65.58;101733.19;4190052;28;20098;-62
2023/01/28 09:30:10;;;;;;;7.47;3.95;;;;;;;3.79;64.80;101732.38;4191587;28;20414;-62
2023/01/28 09:32:13;;;;;;;7.65;4.85;;;;;;;3.75;64.63;101730.44;4195156;28;20124;-63
2023/01/28 09:34:15;;;;;;;7.13;4.03;;;;;;;3.74;64.58;101733.78;4187513;28;20045;-63
2023/01/28 09:36:18;;;;;;;6.47;3.83;;;;;;;3.72;64.86;101724.19;4193264;28;20040;-62
2023/01/28 09:38:21;;;;;;;8.02;4.97;;;;;;;3.74;64.73;101736.34;4187415;28;20090;-62
2023/01/28 09:40:31;;;;;;;10.00;4.40;;;;;;;3.87;64.60;101734.53;4197312;28;20040;-63
2023/01/28 09:42:56;;;;;;;6.50;3.95;;;;;;;3.87;63.84;101744.81;4190361;28;20036;-63
2023/01/28 09:45:07;;;;;;;7.78;4.55;;;;;;;3.80;64.40;101744.44;4196908;28;20045;-63
2023/01/28 09:47:19;;;;;;;8.25;4.93;;;;;;;3.69;65.01;101748.03;4198033;28;20039;-63
2023/01/28 09:49:34;;;;;;;6.97;4.65;;;;;;;3.72;65.13;101750.78;4196908;28;20040;-62
2023/01/28 09:51:42;;;;;;;9.00;4.80;;;;;;;3.94;63.71;101746.97;4181992;28;20041;-63
2023/01/28 09:53:48;;;;;;;9.32;4.35;;;;;;;3.91;64.09;101745.09;4196664;28;20040;-62
2023/01/28 09:55:55;;;;;;;7.70;4.43;;;;;;;3.97;64.45;101752.31;4197917;28;20136;-63
2023/01/28 09:57:58;;;;;;;7.80;4.07;;;;;;;3.96;64.15;101748.00;4196007;28;20036;-63
2023/01/28 10:00:03;;;;;;;6.72;4.00;;;;;;;3.80;65.09;101749.59;4184286;28;20064;-64
2023/01/28 10:02:45;;;;;;;6.43;3.92;;;;;;;4.06;64.31;101746.84;4192751;28;20063;-64
2023/01/28 10:04:59;;;;;;;13.52;4.30;;;;;;;4.18;63.33;101747.63;4191695;28;20032;-64
2023/01/28 10:07:16;;;;;;;7.53;4.70;;;;;;;4.06;63.33;101750.34;4194653;28;20051;-64
2023/01/28 10:09:30;;;;;;;7.63;4.60;;;;;;;4.07;63.27;101757.22;4194952;28;20473;-63
2023/01/28 10:11:48;;;;;;;10.13;4.55;;;;;;;3.99;63.48;101756.78;4196458;28;20047;-64
2023/01/28 10:14:03;;;;;;;6.13;4.25;;;;;;;3.92;63.86;101749.47;4185442;28;20048;-63
2023/01/28 10:16:16;;;;;;;8.93;5.00;;;;;;;4.00;63.57;101752.50;4186027;28;20082;-63
2023/01/28 10:18:30;;;;;;;5.15;3.85;;;;;;;4.11;63.14;101748.91;4187139;28;20287;-63
2023/01/28 10:20:38;;;;;;;6.30;4.00;;;;;;;4.07;62.67;101749.50;4185411;28;20091;-63
2023/01/28 10:22:46;;;;;;;6.97;4.18;;;;;;;4.12;62.54;101753.28;4191967;28;20032;-64
2023/01/28 10:24:53;;;;;;;6.00;3.88;;;;;;;4.13;62.88;101755.06;4185496;28;20041;-64
2023/01/28 10:26:56;;;;;;;6.25;4.10;;;;;;;4.17;62.82;101748.41;4185179;28;20051;-64
2023/01/28 10:29:04;;;;;;;7.47;3.97;;;;;;;4.18;62.52;101752.75;4190484;28;20060;-64